createdAt,value
2018-04-19T00:01:11.095Z,78.77
2018-04-19T00:03:39.917Z,78.88
2018-04-19T00:06:08.486Z,79.16
2018-04-19T00:08:39.697Z,79.37
2018-04-19T00:11:08.146Z,79.47
2018-04-19T00:13:38.501Z,79.38
2018-04-19T00:16:07.920Z,79.20
2018-04-19T00:18:36.655Z,79.11
2018-04-19T00:21:05.323Z,79.02
2018-04-19T00:23:35.682Z,78.82
2018-04-19T00:26:06.640Z,78.64
2018-04-19T00:28:39.957Z,78.27
2018-04-19T00:31:08.509Z,78.30
2018-04-19T00:33:37.297Z,78.59
2018-04-19T00:36:05.985Z,78.92
2018-04-19T00:38:35.699Z,78.84
2018-04-19T00:41:04.390Z,79.11
2018-04-19T00:43:33.073Z,78.88
2018-04-19T00:46:04.281Z,78.98
2018-04-19T00:48:33.438Z,79.00
2018-04-19T00:51:02.116Z,79.09
2018-04-19T00:53:31.080Z,79.20
2018-04-19T00:56:05.704Z,79.48
2018-04-19T00:58:34.398Z,79.60
2018-04-19T01:01:03.018Z,79.61
2018-04-19T01:03:35.635Z,79.99
2018-04-19T01:06:04.385Z,80.02
2018-04-19T01:08:33.041Z,80.21
2018-04-19T01:11:01.804Z,80.46
2018-04-19T01:13:32.201Z,80.65
2018-04-19T01:16:01.572Z,80.90
2018-04-19T01:18:31.076Z,81.14
2018-04-19T01:20:59.812Z,81.30
2018-04-19T01:23:28.593Z,81.41
2018-04-19T01:25:57.582Z,81.55
2018-04-19T01:28:28.840Z,81.58
2018-04-19T01:30:57.725Z,81.67
2018-04-19T01:33:26.667Z,81.64
2018-04-19T01:36:09.729Z,81.58
2018-04-19T01:38:38.535Z,81.56
2018-04-19T01:41:07.420Z,81.68
2018-04-19T01:43:36.331Z,81.62
2018-04-19T01:46:05.109Z,81.62
2018-04-19T01:48:34.819Z,81.63
2018-04-19T01:51:06.280Z,81.50
2018-04-19T01:53:34.983Z,81.60
2018-04-19T01:56:06.519Z,81.72
2018-04-19T01:58:35.176Z,81.85
2018-04-19T02:01:06.650Z,82.15
2018-04-19T02:03:35.452Z,82.42
2018-04-19T02:06:06.993Z,82.47
2018-04-19T02:08:35.411Z,82.54
2018-04-19T02:11:08.373Z,82.61
2018-04-19T02:13:36.819Z,82.52
2018-04-19T02:16:05.047Z,82.51
2018-04-19T02:18:33.285Z,82.62
2018-04-19T02:21:01.499Z,82.63
2018-04-19T02:23:29.829Z,82.55
2018-04-19T02:26:00.678Z,82.58
2018-04-19T02:28:29.193Z,82.81
2018-04-19T02:30:59.456Z,82.97
2018-04-19T02:33:34.039Z,83.11
2018-04-19T02:36:02.245Z,83.17
2018-04-19T02:38:33.336Z,83.43
2018-04-19T02:41:01.609Z,83.45
2018-04-19T02:43:32.555Z,83.54
2018-04-19T02:46:00.843Z,83.69
2018-04-19T02:48:29.326Z,83.97
2018-04-19T02:51:00.043Z,84.18
2018-04-19T02:53:28.691Z,84.06
2018-04-19T02:55:57.288Z,84.14
2018-04-19T02:58:25.930Z,83.95
2018-04-19T03:00:54.401Z,83.94
2018-04-19T03:03:23.798Z,83.99
2018-04-19T03:05:53.890Z,84.07
2018-04-19T03:08:23.631Z,84.11
2018-04-19T03:10:52.042Z,83.96
2018-04-19T03:13:21.012Z,83.76
2018-04-19T03:15:49.212Z,83.67
2018-04-19T03:18:17.408Z,83.67
2018-04-19T03:20:45.616Z,83.65
2018-04-19T03:23:15.005Z,83.63
2018-04-19T03:25:45.085Z,83.78
2018-04-19T03:28:13.309Z,83.63
2018-04-19T03:30:42.056Z,83.62
2018-04-19T03:33:10.257Z,83.54
2018-04-19T03:35:38.479Z,83.38
2018-04-19T03:38:06.783Z,83.43
2018-04-19T03:40:34.997Z,83.55
2018-04-19T03:43:03.921Z,83.31
2018-04-19T03:45:32.210Z,83.33
2018-04-19T03:48:00.441Z,83.17
2018-04-19T03:50:28.745Z,83.10
2018-04-19T03:53:02.127Z,83.10
2018-04-19T03:55:31.079Z,83.16
2018-04-19T03:57:59.250Z,83.35
2018-04-19T04:00:27.521Z,83.33
2018-04-19T20:29:03.047Z,50.94
2018-04-19T20:31:31.527Z,51.09
2018-04-19T20:33:59.972Z,51.32
2018-04-19T20:36:28.438Z,51.50
2018-04-19T20:38:56.989Z,51.68
2018-04-19T20:41:25.395Z,51.75
2018-04-19T20:43:53.922Z,51.90
2018-04-19T20:46:22.402Z,52.08
2018-04-19T20:48:50.890Z,52.15
2018-04-19T20:51:19.231Z,52.16
2018-04-19T20:53:49.362Z,52.36
2018-04-19T20:56:17.898Z,52.54
2018-04-19T20:58:46.403Z,52.42
2018-04-19T21:01:14.918Z,52.55
2018-04-19T21:03:43.658Z,52.74
2018-04-19T21:06:12.251Z,52.83
2018-04-19T21:08:40.497Z,52.90
2018-04-19T21:11:08.970Z,53.08
2018-04-19T21:13:37.400Z,53.36
2018-04-19T21:16:05.978Z,53.34
2018-04-19T21:18:34.412Z,53.71
2018-04-19T21:21:03.564Z,53.72
2018-04-19T21:23:32.041Z,54.04
2018-04-19T21:26:00.445Z,54.42
2018-04-19T21:28:28.946Z,54.73
2018-04-19T21:30:57.464Z,55.09
2018-04-19T21:33:25.882Z,55.18
2018-04-19T21:35:54.255Z,55.29
2018-04-19T21:38:22.721Z,55.73
2018-04-19T21:40:51.907Z,56.19
2018-04-19T21:43:20.358Z,56.06
2018-04-19T21:45:48.790Z,56.75
2018-04-19T21:48:17.277Z,57.01
2018-04-19T21:50:45.775Z,57.30
2018-04-19T21:53:14.278Z,57.97
2018-04-19T21:55:42.757Z,58.20
2018-04-19T21:58:11.238Z,58.61
2018-04-19T22:00:39.718Z,58.58
2018-04-19T22:03:09.175Z,59.12
2018-04-19T22:05:37.686Z,59.05
2018-04-19T22:08:06.200Z,59.30
2018-04-19T22:10:34.642Z,59.48
2018-04-19T22:13:03.177Z,59.08
2018-04-19T22:15:31.696Z,59.21
2018-04-19T22:18:00.173Z,59.18
2018-04-19T22:20:28.677Z,59.38
2018-04-19T22:22:56.951Z,59.63
2018-04-19T22:25:25.430Z,59.60
2018-04-19T22:27:53.855Z,60.20
2018-04-19T22:30:22.346Z,60.23
2018-04-19T22:32:51.988Z,60.24
2018-04-19T22:35:20.451Z,60.09
2018-04-19T22:37:48.963Z,60.26
2018-04-19T22:40:17.471Z,60.26
2018-04-19T22:42:46.010Z,60.60
2018-04-19T22:45:14.483Z,60.55
2018-04-19T22:47:42.958Z,60.68
2018-04-19T22:50:11.448Z,60.93
2018-04-19T22:52:39.926Z,60.90
2018-04-19T22:55:08.480Z,61.23
2018-04-19T22:57:37.000Z,61.24
2018-04-19T23:00:05.643Z,61.33
2018-04-19T23:02:34.070Z,61.62
2018-04-19T23:05:02.426Z,61.67
2018-04-19T23:07:30.872Z,61.65
2018-04-19T23:09:59.365Z,61.89
2018-04-19T23:12:27.529Z,61.85
2018-04-19T23:14:56.038Z,62.04
2018-04-19T23:17:24.564Z,62.11
2018-04-19T23:19:53.844Z,62.34
2018-04-19T23:22:33.928Z,62.22
2018-04-19T23:25:02.505Z,62.14
2018-04-19T23:27:31.052Z,62.15
2018-04-19T23:29:59.441Z,62.38
2018-04-19T23:32:27.949Z,62.30
2018-04-19T23:34:56.388Z,62.40
2018-04-19T23:37:24.822Z,62.37
2018-04-19T23:39:54.624Z,62.57
2018-04-19T23:42:23.033Z,62.40
2018-04-19T23:44:51.535Z,62.44
2018-04-19T23:47:20.053Z,62.54
2018-04-19T23:49:48.573Z,62.77
2018-04-19T23:52:17.016Z,62.65
2018-04-19T23:54:45.569Z,62.51
2018-04-19T23:57:14.156Z,62.63
2018-04-19T23:59:43.229Z,62.78
